createdAt,value
2019-03-06T00:00:28.916Z,7.25
2019-03-06T00:01:28.968Z,7.25
2019-03-06T00:02:28.981Z,7.25
2019-03-06T00:03:28.938Z,7.25
2019-03-06T00:04:28.901Z,7.25
2019-03-06T00:05:29.053Z,7.25
2019-03-06T00:06:28.901Z,7.25
2019-03-06T00:07:28.901Z,7.19
2019-03-06T00:08:28.901Z,7.25
2019-03-06T00:09:28.956Z,7.25
2019-03-06T00:10:28.950Z,7.19
2019-03-06T00:11:28.880Z,7.25
2019-03-06T00:12:28.878Z,7.25
2019-03-06T00:13:28.902Z,7.25
2019-03-06T00:14:29.655Z,7.25
2019-03-06T00:15:28.966Z,7.25
2019-03-06T00:16:28.906Z,7.19
2019-03-06T00:17:29.041Z,7.25
2019-03-06T00:18:29.098Z,7.19
2019-03-06T00:19:28.911Z,7.19
2019-03-06T00:20:28.904Z,7.19
2019-03-06T00:21:28.914Z,7.19
2019-03-06T00:22:28.917Z,7.19
2019-03-06T00:23:30.307Z,7.19
2019-03-06T00:24:28.889Z,7.19
2019-03-06T00:25:29.062Z,7.19
2019-03-06T00:26:28.888Z,7.19
2019-03-06T00:27:28.862Z,7.19
2019-03-06T00:28:28.888Z,7.12
2019-03-06T00:29:28.915Z,7.19
2019-03-06T00:30:28.894Z,7.19
2019-03-06T00:31:28.915Z,7.12
2019-03-06T00:32:30.265Z,7.19
2019-03-06T00:33:28.921Z,7.19
2019-03-06T00:34:28.926Z,7.19
2019-03-06T00:35:28.901Z,7.19
2019-03-06T00:36:28.884Z,7.19
2019-03-06T00:37:28.868Z,7.19
2019-03-06T00:38:28.878Z,7.12
2019-03-06T00:39:28.936Z,7.19
2019-03-06T00:40:28.870Z,7.12
2019-03-06T00:41:30.530Z,7.19
2019-03-06T00:42:28.859Z,7.19
2019-03-06T00:43:28.929Z,7.12
2019-03-06T00:44:28.925Z,7.19
2019-03-06T00:45:28.926Z,7.12
2019-03-06T00:46:28.941Z,7.12
2019-03-06T00:47:28.885Z,7.12
2019-03-06T00:48:28.864Z,7.12
2019-03-06T00:49:28.828Z,7.12
2019-03-06T00:50:28.861Z,7.12
2019-03-06T00:51:28.875Z,7.12
2019-03-06T00:52:28.879Z,7.19
2019-03-06T00:53:28.880Z,7.12
2019-03-06T00:54:28.846Z,7.12
2019-03-06T00:55:28.859Z,7.12
2019-03-06T00:56:28.888Z,7.12
2019-03-06T00:57:28.849Z,7.12
2019-03-06T00:58:29.635Z,7.06
2019-03-06T00:59:28.833Z,7.06
2019-03-06T01:00:28.840Z,7.06
2019-03-06T01:01:28.847Z,7.06
2019-03-06T01:02:28.843Z,7.06
2019-03-06T01:03:28.851Z,7
2019-03-06T01:04:28.850Z,7.06
2019-03-06T01:05:28.930Z,7.06
2019-03-06T01:06:28.846Z,7.06
2019-03-06T01:07:29.885Z,7.06
2019-03-06T01:08:28.849Z,7.06
2019-03-06T01:09:28.827Z,7.06
2019-03-06T01:10:28.833Z,7.06
2019-03-06T01:11:28.866Z,7
2019-03-06T01:12:28.841Z,7.06
2019-03-06T01:13:28.878Z,7
2019-03-06T01:14:28.831Z,7.06
2019-03-06T01:15:28.846Z,7
2019-03-06T01:16:30.355Z,7
2019-03-06T01:17:28.852Z,7
2019-03-06T01:18:28.820Z,7
2019-03-06T01:19:28.821Z,7
2019-03-06T01:20:28.797Z,7
2019-03-06T01:21:28.801Z,7
2019-03-06T01:22:28.807Z,7
2019-03-06T01:23:28.794Z,6.94
2019-03-06T01:24:29.208Z,6.94
2019-03-06T01:25:30.719Z,6.94
2019-03-06T01:26:28.883Z,6.94
2019-03-06T01:27:28.817Z,6.94
2019-03-06T01:28:28.785Z,6.94
2019-03-06T01:29:28.814Z,6.94
2019-03-06T01:30:28.859Z,6.87
2019-03-06T01:31:28.799Z,6.87
2019-03-06T01:32:28.803Z,6.87
2019-03-06T01:33:28.783Z,6.87
2019-03-06T01:34:30.165Z,6.87
2019-03-06T01:35:28.827Z,6.87
2019-03-06T01:36:28.770Z,6.87
2019-03-06T01:37:28.788Z,6.87
2019-03-06T01:38:28.768Z,6.87
2019-03-06T01:39:28.804Z,6.87
2019-03-06T01:40:28.782Z,6.81
2019-03-06T01:41:28.820Z,6.87
2019-03-06T01:42:31.488Z,6.87
2019-03-06T01:43:30.740Z,6.87
2019-03-06T01:44:28.783Z,6.81
2019-03-06T01:45:28.814Z,6.81
2019-03-06T01:46:28.899Z,6.81
2019-03-06T01:47:28.870Z,6.87
2019-03-06T01:48:28.796Z,6.81
2019-03-06T01:49:28.777Z,6.87
2019-03-06T01:50:28.791Z,6.87
2019-03-06T01:51:28.745Z,6.81
2019-03-06T01:52:28.749Z,6.81
2019-03-06T01:53:28.803Z,6.81
2019-03-06T01:54:28.745Z,6.87
2019-03-06T01:55:28.918Z,6.87
2019-03-06T01:56:28.807Z,6.81
2019-03-06T01:57:28.769Z,6.81
2019-03-06T01:58:28.876Z,6.81
2019-03-06T01:59:28.836Z,6.81
2019-03-06T02:00:29.323Z,6.87
2019-03-06T02:01:28.787Z,6.81
2019-03-06T02:02:28.769Z,6.81
2019-03-06T02:03:28.748Z,6.81
2019-03-06T02:04:28.757Z,6.87
2019-03-06T02:05:28.805Z,6.81
2019-03-06T02:06:28.784Z,6.81
2019-03-06T02:07:28.754Z,6.75
2019-03-06T02:08:28.778Z,6.81
2019-03-06T02:09:30.401Z,6.81
2019-03-06T02:10:28.767Z,6.75
2019-03-06T02:11:28.738Z,6.81
2019-03-06T02:12:28.804Z,6.75
2019-03-06T02:13:28.728Z,6.75
2019-03-06T02:14:28.752Z,6.75
2019-03-06T02:15:28.754Z,6.75
2019-03-06T02:16:28.777Z,6.75
2019-03-06T02:17:28.836Z,6.75
2019-03-06T02:18:30.456Z,6.75
2019-03-06T02:19:28.727Z,6.75
2019-03-06T02:20:28.736Z,6.69
2019-03-06T02:21:28.728Z,6.69
2019-03-06T02:22:28.717Z,6.69
2019-03-06T02:23:28.757Z,6.69
2019-03-06T02:24:28.706Z,6.69
2019-03-06T02:25:28.715Z,6.69
2019-03-06T02:26:28.696Z,6.69
2019-03-06T02:27:30.107Z,6.69
2019-03-06T02:28:28.697Z,6.69
2019-03-06T02:29:28.734Z,6.69
2019-03-06T02:30:28.839Z,6.69
2019-03-06T02:31:28.851Z,6.69
2019-03-06T02:32:28.757Z,6.62
2019-03-06T02:33:28.731Z,6.69
2019-03-06T02:34:28.757Z,6.62
2019-03-06T02:35:29.649Z,6.62
2019-03-06T02:36:28.793Z,6.62
2019-03-06T02:37:28.720Z,6.62
2019-03-06T02:38:28.780Z,6.62
2019-03-06T02:39:28.752Z,6.62
2019-03-06T02:40:28.819Z,6.56
2019-03-06T02:41:28.713Z,6.56
2019-03-06T02:42:28.727Z,6.56
2019-03-06T02:43:28.749Z,6.56
2019-03-06T02:44:30.118Z,6.56
2019-03-06T02:45:28.713Z,6.5
2019-03-06T02:46:28.837Z,6.5
2019-03-06T02:47:28.727Z,6.5
2019-03-06T02:48:28.790Z,6.5
2019-03-06T02:49:28.737Z,6.5
2019-03-06T02:50:28.711Z,6.5
2019-03-06T02:51:28.745Z,6.5
2019-03-06T02:52:29.767Z,6.44
2019-03-06T02:53:28.845Z,6.5
2019-03-06T02:54:28.710Z,6.5
2019-03-06T02:55:28.703Z,6.44
2019-03-06T02:56:28.742Z,6.5
2019-03-06T02:57:28.669Z,6.44
2019-03-06T02:58:28.754Z,6.5
2019-03-06T02:59:28.735Z,6.44
2019-03-06T03:00:28.753Z,6.44
2019-03-06T03:01:30.541Z,6.44
2019-03-06T03:02:28.731Z,6.44
2019-03-06T03:03:28.664Z,6.44
2019-03-06T03:04:28.668Z,6.37
2019-03-06T03:05:28.701Z,6.37
2019-03-06T03:06:28.694Z,6.37
2019-03-06T03:07:28.674Z,6.37
2019-03-06T03:08:28.703Z,6.44
2019-03-06T03:09:28.834Z,6.44
2019-03-06T03:10:28.730Z,6.37
2019-03-06T03:11:28.736Z,6.37
2019-03-06T03:12:28.670Z,6.37
2019-03-06T03:13:28.679Z,6.31
2019-03-06T03:14:28.998Z,6.31
2019-03-06T03:15:28.684Z,6.31
2019-03-06T03:16:28.707Z,6.31
2019-03-06T03:17:28.676Z,6.25
2019-03-06T03:18:29.945Z,6.31
2019-03-06T03:19:28.701Z,6.25
2019-03-06T03:20:28.674Z,6.31
2019-03-06T03:21:28.675Z,6.31
2019-03-06T03:22:28.662Z,6.31
2019-03-06T03:23:28.710Z,6.31
2019-03-06T03:24:28.690Z,6.31
2019-03-06T03:25:28.713Z,6.31
2019-03-06T03:26:28.658Z,6.31
2019-03-06T03:27:28.714Z,6.31
2019-03-06T03:28:28.634Z,6.37
2019-03-06T03:29:28.650Z,6.31
2019-03-06T03:30:28.758Z,6.31
2019-03-06T03:31:28.711Z,6.31
2019-03-06T03:32:28.653Z,6.31
2019-03-06T03:33:28.707Z,6.31
2019-03-06T03:34:28.733Z,6.25
2019-03-06T03:35:31.330Z,6.31
2019-03-06T03:36:28.619Z,6.31
2019-03-06T03:37:28.666Z,6.31
2019-03-06T03:38:28.673Z,6.31
2019-03-06T03:39:28.653Z,6.25
2019-03-06T03:40:28.668Z,6.25
2019-03-06T03:41:28.613Z,6.25
2019-03-06T03:42:28.652Z,6.31
2019-03-06T03:43:28.641Z,6.25
2019-03-06T03:44:28.650Z,6.25
2019-03-06T03:45:28.649Z,6.25
2019-03-06T03:46:28.619Z,6.25
2019-03-06T03:47:28.640Z,6.25
2019-03-06T03:48:28.657Z,6.25
2019-03-06T03:49:28.669Z,6.25
2019-03-06T03:50:28.613Z,6.25
2019-03-06T03:51:28.652Z,6.25
2019-03-06T03:52:29.854Z,6.25
2019-03-06T03:53:28.664Z,6.31
2019-03-06T03:54:28.634Z,6.25
2019-03-06T03:55:28.617Z,6.25
2019-03-06T03:56:28.640Z,6.19
2019-03-06T03:57:28.614Z,6.25
2019-03-06T03:58:28.580Z,6.25
2019-03-06T03:59:28.604Z,6.25
2019-03-06T04:00:28.644Z,6.25
2019-03-06T04:01:28.611Z,6.25
2019-03-06T04:02:28.596Z,6.25
2019-03-06T04:03:28.638Z,6.19
2019-03-06T04:04:28.612Z,6.25
2019-03-06T04:05:28.623Z,6.19
2019-03-06T04:06:28.621Z,6.19
2019-03-06T04:07:28.608Z,6.19
2019-03-06T04:08:28.608Z,6.19
2019-03-06T04:09:30.170Z,6.25
2019-03-06T04:10:28.641Z,6.19
2019-03-06T04:11:28.625Z,6.19
2019-03-06T04:12:28.634Z,6.19
2019-03-06T04:13:28.637Z,6.19
2019-03-06T04:14:28.592Z,6.19
2019-03-06T04:15:28.579Z,6.19
2019-03-06T04:16:28.605Z,6.19
2019-03-06T04:17:28.728Z,6.19
2019-03-06T04:18:28.593Z,6.19
2019-03-06T04:19:28.618Z,6.12
2019-03-06T04:20:28.604Z,6.12
2019-03-06T04:21:28.613Z,6.12
2019-03-06T04:22:28.587Z,6.19
2019-03-06T04:23:28.579Z,6.12
2019-03-06T04:24:28.581Z,6.12
2019-03-06T04:25:28.574Z,6.12
2019-03-06T04:26:30.183Z,6.12
2019-03-06T04:27:28.637Z,6.12
2019-03-06T04:28:28.562Z,6.06
2019-03-06T04:29:28.560Z,6.12
2019-03-06T04:30:28.544Z,6.06
2019-03-06T04:31:28.552Z,6.06
2019-03-06T04:32:28.582Z,6.06
2019-03-06T04:33:28.527Z,6.06
2019-03-06T04:34:28.556Z,6.06
2019-03-06T04:35:28.552Z,6
2019-03-06T04:36:28.533Z,6.06
2019-03-06T04:37:28.540Z,6.06
2019-03-06T04:38:28.509Z,6
2019-03-06T04:39:28.506Z,6
2019-03-06T04:40:28.496Z,6
2019-03-06T04:41:28.541Z,6.06
2019-03-06T04:42:28.512Z,6
2019-03-06T04:43:29.719Z,6
2019-03-06T04:44:28.559Z,6.06
2019-03-06T04:45:28.516Z,6.06
2019-03-06T04:46:28.603Z,6.06
2019-03-06T04:47:28.524Z,6
2019-03-06T04:48:28.524Z,6.06
2019-03-06T04:49:28.522Z,6.06
2019-03-06T04:50:28.538Z,6.06
2019-03-06T04:51:28.512Z,6.06
2019-03-06T04:52:29.831Z,6.06
2019-03-06T04:53:28.516Z,6
2019-03-06T04:54:28.495Z,6
2019-03-06T04:55:28.504Z,6
2019-03-06T04:56:28.501Z,6
2019-03-06T04:57:28.504Z,6
2019-03-06T04:58:28.536Z,6.06
2019-03-06T04:59:28.510Z,6
2019-03-06T05:00:28.515Z,6
2019-03-06T05:01:28.569Z,6
2019-03-06T05:02:28.488Z,6
2019-03-06T05:03:28.499Z,6
2019-03-06T05:04:28.509Z,6
2019-03-06T05:05:28.485Z,5.94
2019-03-06T05:06:29.465Z,6
2019-03-06T05:07:28.532Z,5.94
2019-03-06T05:08:28.502Z,6
2019-03-06T05:09:29.531Z,5.94
2019-03-06T05:10:28.536Z,5.94
2019-03-06T05:11:28.485Z,5.94
2019-03-06T05:12:28.540Z,5.94
2019-03-06T05:13:28.477Z,5.94
2019-03-06T05:14:28.501Z,5.94
2019-03-06T05:15:28.459Z,5.94
2019-03-06T05:16:28.455Z,5.94
2019-03-06T05:17:28.504Z,5.87
2019-03-06T05:18:30.221Z,5.94
2019-03-06T05:19:28.535Z,5.87
2019-03-06T05:20:28.515Z,5.87
2019-03-06T05:21:28.480Z,5.94
2019-03-06T05:22:28.513Z,5.87
2019-03-06T05:23:28.465Z,5.94
2019-03-06T05:24:28.461Z,5.87
2019-03-06T05:25:28.528Z,5.87
2019-03-06T05:26:28.462Z,5.87
2019-03-06T05:27:28.454Z,5.87
2019-03-06T05:28:28.475Z,5.87
2019-03-06T05:29:28.453Z,5.87
2019-03-06T05:30:28.443Z,5.87
2019-03-06T05:31:28.477Z,5.87
2019-03-06T05:32:28.486Z,5.81
2019-03-06T05:33:29.044Z,5.87
2019-03-06T05:34:28.569Z,5.81
2019-03-06T05:35:29.579Z,5.87
2019-03-06T05:36:28.494Z,5.81
2019-03-06T05:37:28.479Z,5.87
2019-03-06T05:38:28.453Z,5.87
2019-03-06T05:39:28.474Z,5.87
2019-03-06T05:40:28.517Z,5.87
2019-03-06T05:41:28.448Z,5.81
2019-03-06T05:42:28.454Z,5.87
2019-03-06T05:43:28.441Z,5.81
2019-03-06T05:44:29.011Z,5.81
2019-03-06T05:45:28.420Z,5.81
2019-03-06T05:46:28.457Z,5.75
2019-03-06T05:47:28.433Z,5.87
2019-03-06T05:48:28.493Z,5.81
2019-03-06T05:49:28.451Z,5.87
2019-03-06T05:50:28.419Z,5.87
2019-03-06T05:51:28.406Z,5.87
2019-03-06T05:52:28.477Z,5.87
2019-03-06T05:53:29.323Z,5.87
2019-03-06T05:54:28.416Z,5.87
2019-03-06T05:55:28.433Z,5.87
2019-03-06T05:56:28.441Z,5.81
2019-03-06T05:57:28.435Z,5.87
2019-03-06T05:58:28.410Z,5.87
2019-03-06T05:59:28.426Z,5.87
2019-03-06T06:00:28.401Z,5.87
2019-03-06T06:01:28.494Z,5.81
2019-03-06T06:02:29.484Z,5.87
2019-03-06T06:03:28.402Z,5.81
2019-03-06T06:04:28.437Z,5.87
2019-03-06T06:05:28.744Z,5.81
2019-03-06T06:06:28.436Z,5.81
2019-03-06T06:07:28.423Z,5.81
2019-03-06T06:08:28.490Z,5.81
2019-03-06T06:09:28.416Z,5.81
2019-03-06T06:10:28.414Z,5.81
2019-03-06T06:11:30.013Z,5.81
2019-03-06T06:12:28.397Z,5.81
2019-03-06T06:13:28.469Z,5.81
2019-03-06T06:14:28.408Z,5.81
2019-03-06T06:15:28.416Z,5.81
2019-03-06T06:16:28.397Z,5.81
2019-03-06T06:17:28.450Z,5.81
2019-03-06T06:18:28.406Z,5.81
2019-03-06T06:19:28.410Z,5.81
2019-03-06T06:20:30.224Z,5.81
2019-03-06T06:21:28.450Z,5.75
2019-03-06T06:22:28.400Z,5.75
2019-03-06T06:23:28.387Z,5.75
2019-03-06T06:24:28.409Z,5.81
2019-03-06T06:25:28.423Z,5.81
2019-03-06T06:26:28.796Z,5.81
2019-03-06T06:27:28.394Z,5.81
2019-03-06T06:28:28.383Z,5.81
2019-03-06T06:29:28.389Z,5.81
2019-03-06T06:30:28.410Z,5.81
2019-03-06T06:31:28.395Z,5.81
2019-03-06T06:32:28.407Z,5.81
2019-03-06T06:33:28.407Z,5.81
2019-03-06T06:34:28.417Z,5.81
2019-03-06T06:35:28.428Z,5.75
2019-03-06T06:36:28.382Z,5.81
2019-03-06T06:37:29.281Z,5.75
2019-03-06T06:38:28.385Z,5.75
2019-03-06T06:39:28.397Z,5.75
2019-03-06T06:40:28.357Z,5.81
2019-03-06T06:41:28.372Z,5.81
2019-03-06T06:42:28.472Z,5.81
2019-03-06T06:43:28.347Z,5.81
2019-03-06T06:44:28.367Z,5.87
2019-03-06T06:45:28.344Z,5.87
2019-03-06T06:46:29.932Z,5.87
2019-03-06T06:47:28.362Z,5.87
2019-03-06T06:48:28.514Z,5.87
2019-03-06T06:49:28.377Z,5.87
2019-03-06T06:50:28.364Z,5.87
2019-03-06T06:51:28.339Z,5.94
2019-03-06T06:52:28.339Z,5.94
2019-03-06T06:53:28.348Z,5.94
2019-03-06T06:54:28.354Z,5.94
2019-03-06T06:55:30.145Z,5.94
2019-03-06T06:56:28.485Z,5.94
2019-03-06T06:57:28.336Z,6
2019-03-06T06:58:32.030Z,6
2019-03-06T06:59:28.548Z,6
2019-03-06T07:00:28.315Z,6.06
2019-03-06T07:01:28.398Z,6.12
2019-03-06T07:02:28.347Z,6.06
2019-03-06T07:03:28.369Z,6.12
2019-03-06T07:04:29.548Z,6.12
2019-03-06T07:05:28.318Z,6.12
2019-03-06T07:06:28.326Z,6.12
2019-03-06T07:07:28.427Z,6.19
2019-03-06T07:08:28.310Z,6.19
2019-03-06T07:09:28.311Z,6.19
2019-03-06T07:10:28.670Z,6.25
2019-03-06T07:11:28.309Z,6.25
2019-03-06T07:12:28.329Z,6.25
2019-03-06T07:13:29.417Z,6.31
2019-03-06T07:14:28.288Z,6.37
2019-03-06T07:15:28.297Z,6.37
2019-03-06T07:16:28.302Z,6.37
2019-03-06T07:17:28.305Z,6.37
2019-03-06T07:18:28.305Z,6.44
2019-03-06T07:19:28.298Z,6.44
2019-03-06T07:20:28.290Z,6.44
2019-03-06T07:21:28.343Z,6.5
2019-03-06T07:22:29.096Z,6.5
2019-03-06T07:23:28.285Z,6.5
2019-03-06T07:24:28.295Z,6.56
2019-03-06T07:25:28.301Z,6.56
2019-03-06T07:26:28.287Z,6.62
2019-03-06T07:27:28.319Z,6.62
2019-03-06T07:28:28.322Z,6.62
2019-03-06T07:29:28.324Z,6.62
2019-03-06T07:30:28.286Z,6.69
2019-03-06T07:31:28.396Z,6.69
2019-03-06T07:32:28.625Z,6.69
2019-03-06T07:33:28.284Z,6.75
2019-03-06T07:34:28.283Z,6.75
2019-03-06T07:35:28.278Z,6.81
2019-03-06T07:36:28.257Z,6.75
2019-03-06T07:37:29.238Z,6.81
2019-03-06T07:38:28.264Z,6.87
2019-03-06T07:39:28.273Z,6.87
2019-03-06T07:40:28.257Z,6.94
2019-03-06T07:41:28.274Z,6.94
2019-03-06T07:42:28.275Z,7
2019-03-06T07:43:28.247Z,7
2019-03-06T07:44:30.959Z,7
2019-03-06T07:45:28.245Z,7.06
2019-03-06T07:46:28.259Z,7.06
2019-03-06T07:47:28.256Z,7.12
2019-03-06T07:48:28.282Z,7.12
2019-03-06T07:49:28.259Z,7.12
2019-03-06T07:50:30.073Z,7.19
2019-03-06T07:51:28.249Z,7.19
2019-03-06T07:52:28.272Z,7.19
2019-03-06T07:53:28.233Z,7.19
2019-03-06T07:54:28.447Z,7.25
2019-03-06T07:55:28.243Z,7.25
2019-03-06T07:56:28.244Z,7.25
2019-03-06T07:57:28.259Z,7.25
2019-03-06T07:58:28.251Z,7.31
2019-03-06T07:59:29.869Z,7.25
2019-03-06T08:00:28.239Z,7.31
2019-03-06T08:01:28.235Z,7.25
2019-03-06T08:02:28.260Z,7.31
2019-03-06T08:03:28.241Z,7.31
2019-03-06T08:04:28.242Z,7.31
2019-03-06T08:05:28.215Z,7.37
2019-03-06T08:06:28.239Z,7.31
2019-03-06T08:07:28.265Z,7.37
2019-03-06T08:08:29.687Z,7.37
2019-03-06T08:09:28.230Z,7.37
2019-03-06T08:10:28.255Z,7.44
2019-03-06T08:11:28.243Z,7.44
2019-03-06T08:12:28.205Z,7.5
2019-03-06T08:13:28.205Z,7.5
2019-03-06T08:14:28.212Z,7.5
2019-03-06T08:15:28.230Z,7.56
2019-03-06T08:16:28.391Z,7.56
2019-03-06T08:17:29.896Z,7.62
2019-03-06T08:18:28.218Z,7.69
2019-03-06T08:19:28.237Z,7.69
2019-03-06T08:20:28.215Z,7.75
2019-03-06T08:21:28.207Z,7.75
2019-03-06T08:22:28.224Z,7.75
2019-03-06T08:23:28.222Z,7.81
2019-03-06T08:24:28.230Z,7.81
2019-03-06T08:25:28.207Z,7.87
2019-03-06T08:26:28.969Z,7.94
2019-03-06T08:27:28.211Z,7.94
2019-03-06T08:28:28.223Z,8
2019-03-06T08:29:28.218Z,8
2019-03-06T08:30:28.199Z,8.06
2019-03-06T08:31:28.230Z,8.13
2019-03-06T08:32:28.236Z,8.13
2019-03-06T08:33:28.188Z,8.19
2019-03-06T08:34:28.195Z,8.25
2019-03-06T08:35:29.427Z,8.25
2019-03-06T08:36:28.194Z,8.31
2019-03-06T08:37:28.213Z,8.38
2019-03-06T08:38:29.209Z,8.44
2019-03-06T08:39:28.233Z,8.44
2019-03-06T08:40:28.201Z,8.5
2019-03-06T08:41:28.178Z,8.56
2019-03-06T08:42:28.231Z,8.56
2019-03-06T08:43:28.179Z,8.63
2019-03-06T08:44:30.259Z,8.69
2019-03-06T08:45:28.305Z,8.75
2019-03-06T08:46:28.190Z,8.81
2019-03-06T08:47:28.190Z,8.81
2019-03-06T08:48:28.179Z,8.94
2019-03-06T08:49:28.182Z,8.94
2019-03-06T08:50:28.283Z,9
2019-03-06T08:51:28.171Z,9.06
2019-03-06T08:52:28.193Z,9.06
2019-03-06T08:53:29.816Z,9.13
2019-03-06T08:54:28.174Z,9.13
2019-03-06T08:55:29.661Z,9.13
2019-03-06T08:56:28.163Z,9.19
2019-03-06T08:57:28.170Z,9.25
2019-03-06T08:58:28.150Z,9.25
2019-03-06T08:59:28.701Z,9.25
2019-03-06T09:00:30.691Z,9.31
2019-03-06T09:01:28.229Z,9.38
2019-03-06T09:02:30.278Z,9.38
2019-03-06T09:03:28.193Z,9.44
2019-03-06T09:04:28.133Z,9.44
2019-03-06T09:05:28.156Z,9.44
2019-03-06T09:06:28.209Z,9.44
2019-03-06T09:07:28.190Z,9.44
2019-03-06T09:08:28.128Z,9.44
2019-03-06T09:09:28.165Z,9.5
2019-03-06T09:10:28.141Z,9.44
2019-03-06T09:11:29.459Z,9.44
2019-03-06T09:12:28.166Z,9.44
2019-03-06T09:13:28.141Z,9.5
2019-03-06T09:14:28.114Z,9.5
2019-03-06T09:15:28.146Z,9.5
2019-03-06T09:16:28.121Z,9.5
2019-03-06T09:17:28.127Z,9.44
2019-03-06T09:18:28.127Z,9.5
2019-03-06T09:19:28.154Z,9.5
2019-03-06T09:20:41.297Z,9.5
2019-03-06T09:21:28.126Z,9.5
2019-03-06T09:22:28.304Z,9.5
2019-03-06T09:23:28.136Z,9.5
2019-03-06T09:24:28.140Z,9.56
2019-03-06T09:25:28.125Z,9.56
2019-03-06T09:26:28.117Z,9.56
2019-03-06T09:27:28.146Z,9.56
2019-03-06T09:28:28.139Z,9.56
2019-03-06T09:29:29.537Z,9.56
2019-03-06T09:30:28.099Z,9.5
2019-03-06T09:31:28.138Z,9.56
2019-03-06T09:32:28.149Z,9.56
2019-03-06T09:33:28.112Z,9.63
2019-03-06T09:34:28.582Z,9.63
2019-03-06T09:35:28.108Z,9.63
2019-03-06T09:36:28.096Z,9.63
2019-03-06T09:37:28.115Z,9.63
2019-03-06T09:38:29.763Z,9.63
2019-03-06T09:39:28.085Z,9.69
2019-03-06T09:40:28.095Z,9.69
2019-03-06T09:41:28.094Z,9.75
2019-03-06T09:42:28.122Z,9.81
2019-03-06T09:43:28.131Z,9.81
2019-03-06T09:44:28.254Z,9.88
2019-03-06T09:45:28.110Z,9.81
2019-03-06T09:46:28.087Z,9.88
2019-03-06T09:47:28.079Z,9.94
2019-03-06T09:48:28.092Z,9.94
2019-03-06T09:49:28.099Z,10
2019-03-06T09:50:28.088Z,10
2019-03-06T09:51:28.105Z,10.06
2019-03-06T09:52:28.267Z,10.06
2019-03-06T09:53:28.093Z,10.13
2019-03-06T09:54:28.100Z,10.19
2019-03-06T09:55:28.664Z,10.25
2019-03-06T09:56:28.057Z,10.25
2019-03-06T09:57:28.157Z,10.38
2019-03-06T09:58:28.162Z,10.38
2019-03-06T09:59:28.080Z,10.44
2019-03-06T10:00:28.058Z,10.5
2019-03-06T10:01:28.092Z,10.56
2019-03-06T10:02:28.097Z,10.56
2019-03-06T10:03:28.101Z,10.63
2019-03-06T10:04:29.449Z,10.63
2019-03-06T10:05:28.052Z,10.69
2019-03-06T10:06:28.375Z,10.69
2019-03-06T10:07:28.077Z,10.75
2019-03-06T10:08:28.084Z,10.81
2019-03-06T10:09:28.065Z,10.81
2019-03-06T10:10:28.080Z,10.94
2019-03-06T10:11:28.068Z,11
2019-03-06T10:12:28.044Z,11.06
2019-03-06T10:13:29.735Z,11.12
2019-03-06T10:14:28.126Z,11.12
2019-03-06T10:15:28.043Z,11.19
2019-03-06T10:16:28.069Z,11.31
2019-03-06T10:17:30.609Z,11.38
2019-03-06T10:18:28.118Z,11.44
2019-03-06T10:19:29.877Z,11.44
2019-03-06T10:20:28.068Z,11.5
2019-03-06T10:21:28.083Z,11.5
2019-03-06T10:22:28.056Z,11.56
2019-03-06T10:23:28.098Z,11.63
2019-03-06T10:24:28.112Z,11.69
2019-03-06T10:25:33.854Z,11.69
2019-03-06T10:26:29.284Z,11.81
2019-03-06T10:27:28.111Z,11.75
2019-03-06T10:28:28.408Z,11.81
2019-03-06T10:29:28.162Z,11.88
2019-03-06T10:30:28.797Z,11.88
2019-03-06T10:31:28.126Z,11.94
2019-03-06T10:32:28.116Z,11.94
2019-03-06T10:33:28.113Z,12
2019-03-06T10:34:28.123Z,12
2019-03-06T10:35:29.371Z,12.13
2019-03-06T10:36:28.345Z,12.13
2019-03-06T10:37:28.291Z,12.19
2019-03-06T10:38:28.195Z,12.25
2019-03-06T10:39:28.106Z,12.25
2019-03-06T10:40:29.091Z,12.25
2019-03-06T10:41:28.185Z,12.31
2019-03-06T10:42:28.112Z,12.37
2019-03-06T10:43:28.107Z,12.44
2019-03-06T10:44:30.392Z,12.44
2019-03-06T10:45:29.943Z,12.5
2019-03-06T10:46:28.130Z,12.5
2019-03-06T10:47:28.232Z,12.56
2019-03-06T10:48:28.102Z,12.63
2019-03-06T10:49:28.214Z,12.63
2019-03-06T10:50:31.955Z,12.75
2019-03-06T10:51:28.185Z,12.75
2019-03-06T10:52:28.217Z,12.75
2019-03-06T10:53:28.100Z,12.81
2019-03-06T10:54:28.108Z,12.88
2019-03-06T10:55:29.399Z,12.94
2019-03-06T10:56:28.139Z,13
2019-03-06T10:57:28.142Z,13
2019-03-06T10:58:28.087Z,13.06
2019-03-06T10:59:28.162Z,13.06
2019-03-06T11:00:30.656Z,13.13
2019-03-06T11:01:28.222Z,13.13
2019-03-06T11:02:28.079Z,13.19
2019-03-06T11:03:28.066Z,13.19
2019-03-06T11:04:28.127Z,13.25
2019-03-06T11:05:28.171Z,13.31
2019-03-06T11:06:28.086Z,13.31
2019-03-06T11:07:28.147Z,13.38
2019-03-06T11:08:28.074Z,13.44
2019-03-06T11:09:28.131Z,13.5
2019-03-06T11:10:29.414Z,13.5
2019-03-06T11:11:28.229Z,13.5
2019-03-06T11:12:28.205Z,13.56
2019-03-06T11:13:28.141Z,13.56
2019-03-06T11:14:28.163Z,13.56
2019-03-06T11:15:28.074Z,13.62
2019-03-06T11:16:41.503Z,13.62
2019-03-06T11:17:29.645Z,13.62
2019-03-06T11:18:28.149Z,13.62
2019-03-06T11:19:28.050Z,13.62
2019-03-06T11:20:28.008Z,13.69
2019-03-06T11:21:28.023Z,13.75
2019-03-06T11:22:28.018Z,13.75
2019-03-06T11:23:28.041Z,13.88
2019-03-06T11:24:28.057Z,13.88
2019-03-06T11:25:28.044Z,13.88
2019-03-06T11:26:28.078Z,14
2019-03-06T11:27:28.278Z,14.06
2019-03-06T11:28:28.138Z,14.19
2019-03-06T11:29:28.048Z,14.25
2019-03-06T11:30:27.989Z,14.25
2019-03-06T11:31:28.066Z,14.31
2019-03-06T11:32:28.340Z,14.25
2019-03-06T11:33:29.342Z,14.25
2019-03-06T11:34:28.046Z,14.19
2019-03-06T11:35:28.002Z,14.19
2019-03-06T11:36:27.984Z,14.19
2019-03-06T11:37:28.042Z,14.19
2019-03-06T11:38:28.010Z,14.25
2019-03-06T11:39:28.053Z,14.31
2019-03-06T11:40:28.026Z,14.31
2019-03-06T11:41:29.347Z,14.38
2019-03-06T11:42:27.983Z,14.38
2019-03-06T11:43:28.028Z,14.38
2019-03-06T11:44:28.024Z,14.44
2019-03-06T11:45:27.993Z,14.44
2019-03-06T11:46:27.970Z,14.44
2019-03-06T11:47:27.997Z,14.5
2019-03-06T11:48:27.964Z,14.5
2019-03-06T11:49:28.752Z,14.56
2019-03-06T11:50:28.009Z,14.56
2019-03-06T11:51:28.083Z,14.63
2019-03-06T11:52:27.965Z,14.63
2019-03-06T11:53:27.958Z,14.69
2019-03-06T11:54:28.167Z,14.63
2019-03-06T11:55:27.996Z,14.63
2019-03-06T11:56:27.981Z,14.63
2019-03-06T11:57:27.986Z,14.63
2019-03-06T11:58:27.967Z,14.63
2019-03-06T11:59:27.974Z,14.63
2019-03-06T12:00:28.001Z,14.63
2019-03-06T12:01:27.971Z,14.63
2019-03-06T12:02:27.988Z,14.63
2019-03-06T12:03:27.986Z,14.63
2019-03-06T12:04:29.176Z,14.69
2019-03-06T12:05:28.008Z,14.69
2019-03-06T12:06:27.974Z,14.63
2019-03-06T12:07:27.997Z,14.63
2019-03-06T12:08:27.982Z,14.63
2019-03-06T12:09:28.058Z,14.69
2019-03-06T12:10:27.977Z,14.69
2019-03-06T12:11:27.987Z,14.69
2019-03-06T12:12:29.706Z,14.75
2019-03-06T12:13:28.015Z,14.75
2019-03-06T12:14:27.933Z,14.81
2019-03-06T12:15:28.114Z,14.75
2019-03-06T12:16:28.913Z,14.75
2019-03-06T12:17:27.991Z,14.81
2019-03-06T12:18:28.145Z,14.75
2019-03-06T12:19:28.347Z,14.75
2019-03-06T12:20:27.959Z,14.81
2019-03-06T12:21:27.987Z,14.81
2019-03-06T12:22:28.020Z,14.81
2019-03-06T12:23:27.941Z,14.81
2019-03-06T12:24:27.915Z,14.81
2019-03-06T12:25:27.914Z,14.81
2019-03-06T12:26:27.955Z,14.81
2019-03-06T12:27:28.876Z,14.81
2019-03-06T12:28:27.927Z,14.81
2019-03-06T12:29:28.240Z,14.87
2019-03-06T12:30:27.913Z,14.87
2019-03-06T12:31:27.910Z,15
2019-03-06T12:32:27.904Z,14.94
2019-03-06T12:33:27.926Z,14.94
2019-03-06T12:34:28.162Z,15.06
2019-03-06T12:35:27.898Z,15.06
2019-03-06T12:36:27.891Z,15.19
2019-03-06T12:37:28.172Z,15.25
2019-03-06T12:38:28.236Z,15.25
2019-03-06T12:39:27.918Z,15.25
2019-03-06T12:40:27.874Z,15.19
2019-03-06T12:41:27.883Z,15.19
2019-03-06T12:42:27.890Z,15.19
2019-03-06T12:43:27.885Z,15.13
2019-03-06T12:44:29.615Z,15.13
2019-03-06T12:45:27.885Z,15.13
2019-03-06T12:46:27.899Z,15.13
2019-03-06T12:47:27.893Z,15.06
2019-03-06T12:48:27.867Z,15.06
2019-03-06T12:49:27.908Z,15.06
2019-03-06T12:50:27.873Z,15.13
2019-03-06T12:51:27.948Z,15.13
2019-03-06T12:52:30.942Z,15.06
2019-03-06T12:53:27.867Z,15.06
2019-03-06T12:54:27.875Z,15.13
2019-03-06T12:55:27.917Z,15.06
2019-03-06T12:56:27.932Z,15.13
2019-03-06T12:57:27.893Z,15.13
2019-03-06T12:58:27.864Z,15.13
2019-03-06T12:59:28.092Z,15.13
2019-03-06T13:00:28.635Z,15.13
2019-03-06T13:01:27.886Z,15.13
2019-03-06T13:02:27.852Z,15.13
2019-03-06T13:03:27.856Z,15.13
2019-03-06T13:04:27.868Z,15.13
2019-03-06T13:05:27.903Z,15.19
2019-03-06T13:06:27.920Z,15.13
2019-03-06T13:07:27.965Z,15.06
2019-03-06T13:08:29.367Z,15.06
2019-03-06T13:09:27.917Z,15.06
2019-03-06T13:10:27.894Z,15.06
2019-03-06T13:11:27.868Z,15
2019-03-06T13:12:29.602Z,15
2019-03-06T13:13:36.223Z,15
2019-03-06T13:14:30.852Z,15
2019-03-06T13:15:27.931Z,15
2019-03-06T13:16:29.217Z,15
2019-03-06T13:17:27.871Z,15
2019-03-06T13:18:27.958Z,15